ADDS METAR Data INFO
IDs: Format: Raw Decoded Include TAF

Data at: 2209 UTC 24 Jun 2018

KFLG 242157Z 25007G24KT 200V300 10SM CLR 28/M01 A3019 RMK AO2 SLP109 T02781006
KFLG 242057Z 22013G17KT 10SM CLR 27/M01 A3020 RMK AO2 PK WND 21028/2003 SLP107 T02671006 58008
KFLG 241957Z 20014G21KT 10SM CLR 27/00 A3021 RMK AO2 SLP111 T02670000
KFLG 241857Z 22008G21KT 200V280 10SM CLR 25/M01 A3022 RMK AO2 SLP117 T02501011
KFLG 241757Z 24013G22KT 10SM CLR 24/M02 A3023 RMK AO2 SLP115 T02441017 10250 20100 53004
KFLG 241657Z 22019KT 10SM CLR 24/00 A3022 RMK AO2 SLP114 T02440000
KFLG 241557Z 22014G18KT 10SM CLR 23/01 A3021 RMK AO2 SLP109 T02280011
KFLG 241457Z 20009KT 10SM CLR 20/03 A3021 RMK AO2 SLP113 T02000033 53015
KFLG 241357Z 34003KT 10SM CLR 18/04 A3020 RMK AO2 SLP107 T01830044
KFLG 241257Z 27004KT 10SM CLR 12/03 A3017 RMK AO2 SLP109 T01220033
KFLG 241157Z AUTO 00000KT 10SM CLR 10/02 A3016 RMK AO2 SLP107 T01000017 10194 20094 53006
KFLG 241057Z AUTO 00000KT 10SM CLR 12/02 A3014 RMK AO2 SLP092 T01220022
KFLG 240957Z AUTO 00000KT 10SM CLR 13/02 A3014 RMK AO2 SLP089 T01330017
KFLG 240857Z AUTO 27004KT 10SM CLR 16/02 A3014 RMK AO2 SLP083 T01610017 56004
KFLG 240757Z AUTO 29004KT 10SM CLR 16/01 A3014 RMK AO2 SLP085 T01610011
KFLG 240657Z AUTO 27004KT 10SM CLR 17/01 A3015 RMK AO2 SLP085 T01720006 402940072
KFLG 240557Z AUTO 26008KT 10SM CLR 19/00 A3015 RMK AO2 SLP081 T01940000 10278 20183 50004
KFLG 240457Z AUTO 25007KT 10SM CLR 20/M01 A3017 RMK AO2 SLP088 T02001006
KFLG 240357Z 25005KT 10SM CLR 21/M02 A3016 RMK AO2 SLP081 T02111017
KFLG 240257Z 25008G17KT 10SM CLR 23/M01 A3014 RMK AO2 SLP078 T02331011 53007
KFLG 240157Z 23011G18KT 10SM CLR 25/M02 A3012 RMK AO2 PK WND 24026/0102 SLP085 T02501017
KFLG 240057Z 26015G26KT 10SM CLR 27/M02 A3011 RMK AO2 PK WND 24026/0055 SLP096 T02671017
KFLG 232357Z 25014G25KT 10SM CLR 27/M03 A3011 RMK AO2 PK WND 23033/2312 SLP092 T02721028 10294 20272 55006
KFLG 232257Z 21024G30KT 10SM CLR 28/M02 A3011 RMK AO2 PK WND 22034/2203 SLP089 T02831017
KFLG 232157Z 19017G30KT 160V220 10SM CLR 29/M01 A3012 RMK AO2 PK WND 22030/2149 SLP092 T02891011
KFLG 232057Z 24010G27KT 10SM CLR 28/M01 A3013 RMK AO2 PK WND 24027/2051 SLP097 T02781011 58007
KFLG 231957Z 23015G28KT 10SM CLR 28/M03 A3015 RMK AO2 PK WND 21028/1927 SLP099 T02831033
KFLG 231857Z 22017G22KT 10SM CLR 28/M04 A3015 RMK AO2 SLP092 T02831044
KFLG 231757Z 21017G22KT 10SM CLR 28/M04 A3016 RMK AO2 SLP088 T02831044 10283 20072 56007
KFLG 231657Z 22013G17KT 10SM CLR 27/M05 A3016 RMK AO2 SLP085 T02671050
KFLG 231557Z 22013KT 10SM CLR 26/M05 A3018 RMK AO2 SLP086 T02611050
KFLG 231457Z 22007KT 10SM CLR 23/M06 A3018 RMK AO2 SLP089 T02281056 51007
KFLG 231357Z 00000KT 10SM CLR 16/M03 A3018 RMK AO2 SLP097 T01561028
KFLG 231257Z 03003KT 10SM CLR 09/M06 A3017 RMK AO2 SLP107 T00891056
KFLG 231157Z AUTO 00000KT 10SM CLR 09/M06 A3016 RMK AO2 SLP101 T00891061 10178 20072 53002
KFLG 231057Z AUTO 00000KT 10SM CLR 09/M06 A3013 RMK AO2 SLP093 T00891061